Aktualne dane pomiarowe

Uwaga, wersja testowa! Automatyczne pobieranie danych za pomocą narzędzi lub skryptów to umożliwiających jest zabronione.

Dane meteo z obszaru Polski uzyskane na podstawie depesz SYNOP pobieranych co godzinę z NWS. Najedź myszką na symbol przedstawiony w tabeli, aby uzyskać informacje co do jego znaczenia. Prosimy pamiętać, że to testowa wersja strony, która jeszcze nie jest ukończona. Stworzono również jest krótki FAQ dotyczący korzystania z tej podstrony Anomalie temperatury w chwili obecnej odniesione są do okresu referencyjnego 1951-2016. Okres ten będzie później zmieniony na 1981-2010. Kliknij ikonę aby pobrać plik CSV. Kliknij ikonę aby wygenerować mapę synoptyczną dla danego terminu.

Wybierz Datę:    

        

Cewice (12136)

Dane terminowe dla wybranej stacji. Kliknij datę, aby otrzymać dane z tego terminu dla wszystkich stacji.

TemperaturaZachmurzenieWiatrCiśnienieOpadyPogoda
 Data t td wb tx tn tg rh  Nt Nl Cl Cm Ch ws wd g1 g2 wx mslp ppp ch 24h 12h t ww ww w1 w2  
2019-08-08 23:00:00 11.3 10.8 10.9--- 9730.0wxwxwx2wx--21010.1 991.6 0.4---------
2019-08-08 22:00:00 11.4 11.1 11.1--- 9820.0wxwxwx1wx--11010.1 991.6 0.5---------
2019-08-08 21:00:00 11.2 11.0 11.0--- 9910.0wx-wx0---01009.8 991.3 -0.2---------
2019-08-08 20:00:00 13.6 12.6 12.9--- 9440.0wx-wx2wx--21009.5 991.2 0.5---------
2019-08-08 19:00:00 14.4 13.5 13.7--- 9440.0wxwxwx2wx--21009.4 991.1 0.4---------
2019-08-08 18:00:00 14.7 13.6 13.9 23.1 14.7- 9310.0wxwxwx3wx-1031009.8 991.5 1.0- 2.012wx-w1w2--
2019-08-08 17:00:00 15.1 12.8 13.5--- 8630.0wx-wx2wx-1021008.9 990.7 0.3---wx-w1w2--
2019-08-08 16:00:00 20.7 10.8 14.7--- 5365.0wxwxwx4wx--41008.6 990.8 0.3---------
2019-08-08 15:00:00 22.4 10.2 15.2--- 4655.0wxwxwx6wx--61008.2 990.4 0.2---------
2019-08-08 14:00:00 22.2 10.8 15.4--- 4860.0wxwxwx7wx--71008.1 990.3 0.3---------
2019-08-08 13:00:00 21.2 11.7 15.4--- 5550.0wxwxwx7wx--71008.3 990.4 0.5---------
2019-08-08 12:00:00 22.1 12.5 16.1--- 5550.0wxwxwx10wx-14101008.1 990.3 0.6- 0.86------
2019-08-08 11:00:00 20.2 14.1 16.2--- 6840.0wxwxwx6wx--61007.9 990.0 0.8---------
2019-08-08 10:00:00 20.1 15.0 16.7--- 7340.0wxwxwx6wx--61007.8 989.9 1.4---wx-w1--
2019-08-08 09:00:00 17.6 15.6 16.2--- 8820.0wxwxwxwx4wx--41007.8 989.7 1.5---wx---
2019-08-08 08:00:00 18.6 16.8 17.3--- 8930.0wxwxwxwx4wx--41007.2 989.2 1.4---wx-w1--
2019-08-08 07:00:00 18.7 16.6 17.2--- 8820.0wxwxwx5wx--51006.5 988.5 1.0---wx---
2019-08-08 06:00:00 17.4 16.4 16.7 20.8 14.8- 9410.0wxwxwx4wx--41006.2 988.1 0.9 2.3 2.012------
2019-08-08 05:00:00 17.1 16.5 16.6--- 9610.0wxwxwx5wx---1005.8 987.8 0.6---------
2019-08-08 04:00:00 15.0 14.9 14.9--- 995.0wxwxwx3wx--31005.7 987.5 0.5---wx-w1--
2019-08-08 03:00:00 15.6 15.4 15.4--- 9910.0wxwxwx1wx--11005.4 987.2 0.8---wx---
2019-08-08 02:00:00 16.0 15.3 15.5--- 9610.0wxwxwx3wx--31005.3 987.2 0.4---------
2019-08-08 01:00:00 16.7 15.7 16.0--- 9420.0wxwxwx3wx--31005.1 987.0 0.3---------
2019-08-08 00:00:00 16.5 15.7 15.9--- 9510.0wxwxwx2wx--21004.5 986.4 -0.3- 0.56------
2019-08-07 23:00:00 16.3 15.6 15.8--- 9610.0wxwxwx1wx--11004.9 986.8 -0.1---------
2019-08-07 22:00:00 16.3 15.6 15.8--- 9610.0wx-wx0---01004.8 986.7 -0.3---------
2019-08-07 21:00:00 16.4 15.6 15.8--- 9520.0wx-wx1wx--11004.9 986.8 -0.3---------
2019-08-07 20:00:00 17.4 16.9 17.0--- 9710.0wx-wxwx1---11005.0 986.9 -0.1---wx-w1--
2019-08-07 19:00:00 18.2 16.4 16.9--- 8930.0wx-wx1---11004.9 987.0 -0.3---wx-w1w2--
2019-08-07 18:00:00 20.6 15.5 17.2 25.8 17.0- 7340.0wxwxwxwx2wx-821004.9 987.0 -0.5- 0.012------
2019-08-07 17:00:00 22.1 15.1 17.5--- 6550.0wx-wxwx2wx--21004.8 987.0 -1.0---------
2019-08-07 16:00:00 23.7 14.0 17.6--- 5560.0wx-wxwx2wx--21004.9 987.2 -1.0---------
2019-08-07 15:00:00 24.6 12.6 17.2--- 4755.0wxwxwxwx3wx-831005.1 987.5 -1.2---------
2019-08-07 14:00:00 24.7 13.7 17.8--- 5050.0wxwxwxwx3wx--31005.6 988.0 -0.9---------
2019-08-07 13:00:00 25.1 12.6 17.4--- 4640.0wxwxwxwxwx2wx-821005.8 988.2 -1.1---------
2019-08-07 12:00:00 24.5 12.8 17.3--- 4850.0wxwxwxwx2wx--21006.3 988.7 -0.6- 0.06------
2019-08-07 11:00:00 24.2 11.3 16.4--- 4450.0wxwxwx3wx--31006.6 989.0 -0.5---------
2019-08-07 10:00:00 22.9 8.8 14.8--- 4155.0wx-wx3wx--31007.0 989.3 -0.4---------
2019-08-07 09:00:00 22.5 9.8 15.0--- 4550.0wx-wx2wx--21007.0 989.3 -0.3---------
2019-08-07 08:00:00 21.3 12.6 15.9--- 5850.0wx-wx1wx--11007.3 989.5 0.1---------
2019-08-07 07:00:00 19.5 14.8 16.3--- 7440.0wx-wx1wx--11007.7 989.7 0.3---------
2019-08-07 06:00:00 17.0 16.0 16.3 17.6 10.7- 9420.0wx-1---11007.8 989.7 -0.1 2.2 0.012------
2019-08-07 05:00:00 14.7 14.6 14.6--- 996.0wx-0---01007.9 989.6 -0.1---wx-w1w2--
2019-08-07 04:00:00 11.1 11.1 11.0--- 1000.4wx-1wx--11007.9 989.4 -0.9---wx-w1w2--
2019-08-07 03:00:00 11.4 11.4 11.3--- 1000.3wx-0---01008.2 989.7 -0.4---wx-w1w2--
2019-08-07 02:00:00 12.1 12.0 12.0--- 996.0wx-wx1---11008.2 989.8 -0.4---wx-w2--
2019-08-07 01:00:00 11.8 11.8 11.8--- 1000.6wx-1---11008.8 990.3 0.2---wx-w1w2--
2019-08-07 00:00:00 12.4 12.4 12.4--- 1000.1wx-1---11008.6 990.2 -0.1- 0.06wx-w1--
2.6 ms

 

Print Friendly, PDF & Email